Terminal Aerodrome Forecast
Issued by NWS

Home | Current Version | Previous Version | Text Only | Print | Product List | Glossary On
Versions: 1 2 3 4 5 6 7 8 9 10 11 12 13 14 15 16 17 18 19 20 21
000
FTUS43 KDVN 270800 AAA
TAFCID
TAF AMD
KCID 270804Z 2708/2806 09003KT P6SM VCSH SCT060 BKN110
      TEMPO 2710/2714 4SM -TSRA FEW015 BKN030CB OVC080
     FM271500 09005KT P6SM FEW040 SCT250=

USA.gov is the U.S. government's official web portal to all federal, state and local government web resources and services.